Time;durP1;ratioP1;P1;durP2;ratioP2;P2;SDS_P1;SDS_P2;PMS_P1;PMS_P2;Temp;Humidity;BMP_temperature;BMP_pressure;BME280_temperature;BME280_humidity;BME280_pressure;Samples;Min_cycle;Max_cycle;Signal;HPM_P1;HPM_P2
2021/08/17 00:00:03;;;;;;;;;;;;;;;18.83;52.62;100526.78;4973954;28;98791;-78
2021/08/17 00:02:29;;;;;;;;;;;;;;;18.52;53.15;100523.63;4974461;28;98957;-78
2021/08/17 00:04:56;;;;;;;;;;;;;;;18.66;53.32;100514.63;4971725;28;98255;-79
2021/08/17 00:07:22;;;;;;;;;;;;;;;18.78;52.44;100523.56;4974580;28;97050;-78
2021/08/17 00:09:49;;;;;;;;;;;;;;;18.87;52.13;100525.59;4972422;28;96998;-77
2021/08/17 00:12:16;;;;;;;;;;;;;;;18.83;52.38;100519.63;4974635;28;99247;-79
2021/08/17 00:14:43;;;;;;;;;;;;;;;18.87;52.38;100521.09;4974834;28;99203;-79
2021/08/17 00:17:10;;;;;;;;;;;;;;;18.49;53.19;100521.19;4978750;28;97587;-79
2021/08/17 00:19:39;;;;;;;;;;;;;;;18.77;52.58;100524.56;4975908;28;96854;-78
2021/08/17 00:22:06;;;;;;;;;;;;;;;18.91;51.98;100516.34;4979594;28;99559;-78
2021/08/17 00:24:33;;;;;;;;;;;;;;;18.70;52.40;100518.81;4990382;28;97766;-79
2021/08/17 00:26:59;;;;;;;;;;;;;;;18.99;51.87;100520.19;4992854;28;97114;-79
2021/08/17 00:29:27;;;;;;;;;;;;;;;18.84;52.11;100507.09;4984138;28;96863;-79
2021/08/17 00:31:53;;;;;;;;;;;;;;;18.62;52.40;100508.66;4977344;28;99497;-79
2021/08/17 00:34:20;;;;;;;;;;;;;;;18.75;52.39;100513.09;4974836;28;98849;-78
2021/08/17 00:36:46;;;;;;;;;;;;;;;18.66;52.83;100507.44;4976369;28;97146;-78
2021/08/17 00:39:13;;;;;;;;;;;;;;;18.76;52.09;100504.97;4977569;28;96814;-78
2021/08/17 00:41:40;;;;;;;;;;;;;;;18.84;52.14;100502.56;4967707;28;98957;-78
2021/08/17 00:44:06;;;;;;;;;;;;;;;18.69;52.31;100511.75;4969865;28;98839;-79
2021/08/17 00:46:34;;;;;;;;;;;;;;;18.64;52.40;100501.34;4978853;28;96729;-78
2021/08/17 00:49:00;;;;;;;;;;;;;;;18.71;52.03;100497.25;4977009;28;97277;-78
2021/08/17 00:51:27;;;;;;;;;;;;;;;18.98;51.23;100504.22;4975751;28;98909;-79
2021/08/17 00:53:53;;;;;;;;;;;;;;;19.14;50.73;100503.94;4975028;28;98835;-78
2021/08/17 00:56:20;;;;;;;;;;;;;;;18.99;51.28;100505.94;4977472;28;97182;-78
2021/08/17 00:58:46;;;;;;;;;;;;;;;19.30;50.57;100491.97;4982997;28;97669;-79
2021/08/17 01:01:13;;;;;;;;;;;;;;;18.65;51.50;100487.00;4996034;28;99086;-78
2021/08/17 01:03:40;;;;;;;;;;;;;;;19.17;50.79;100477.78;4994135;28;98764;-78
2021/08/17 01:06:07;;;;;;;;;;;;;;;19.22;50.47;100481.00;4996687;28;97917;-78
2021/08/17 01:08:33;;;;;;;;;;;;;;;19.26;50.53;100485.13;4995540;28;97502;-78
2021/08/17 01:11:00;;;;;;;;;;;;;;;19.15;50.82;100474.38;5002693;28;98965;-78
2021/08/17 01:13:28;;;;;;;;;;;;;;;19.02;51.26;100489.66;4994865;28;98824;-79
2021/08/17 01:15:54;;;;;;;;;;;;;;;19.30;50.31;100481.25;4992050;28;96811;-78
2021/08/17 01:18:21;;;;;;;;;;;;;;;18.74;51.48;100474.78;4991253;28;97254;-78
2021/08/17 01:20:50;;;;;;;;;;;;;;;18.65;51.53;100459.38;4996547;28;97830;-78
2021/08/17 01:23:18;;;;;;;;;;;;;;;18.18;52.50;100470.84;4993194;28;99387;-78
2021/08/17 01:25:46;;;;;;;;;;;;;;;17.48;54.40;100470.38;4990817;28;96872;-78
2021/08/17 01:28:12;;;;;;;;;;;;;;;17.98;53.74;100466.06;4980036;28;98824;-78
2021/08/17 01:30:38;;;;;;;;;;;;;;;18.29;52.48;100473.59;4995027;28;98647;-78
2021/08/17 01:33:05;;;;;;;;;;;;;;;18.39;52.18;100479.13;4993217;28;99154;-78
2021/08/17 01:35:31;;;;;;;;;;;;;;;18.53;52.12;100462.94;4996272;28;96823;-78
2021/08/17 01:37:58;;;;;;;;;;;;;;;18.05;52.95;100476.19;4997779;28;96829;-78
2021/08/17 01:40:25;;;;;;;;;;;;;;;17.95;53.59;100475.13;4993352;28;98989;-78
2021/08/17 01:42:52;;;;;;;;;;;;;;;18.12;53.49;100476.59;4990139;28;98791;-79
2021/08/17 01:45:20;;;;;;;;;;;;;;;18.19;52.98;100481.41;4995121;28;97270;-78
2021/08/17 01:47:47;;;;;;;;;;;;;;;18.50;52.35;100496.13;4995778;28;96958;-78
2021/08/17 01:50:13;;;;;;;;;;;;;;;18.65;51.63;100491.50;4982587;28;99223;-78
2021/08/17 01:52:40;;;;;;;;;;;;;;;18.44;51.94;100482.34;4995835;28;98654;-79
2021/08/17 01:55:07;;;;;;;;;;;;;;;18.09;53.32;100477.69;4994515;28;96789;-78
2021/08/17 01:57:33;;;;;;;;;;;;;;;18.35;52.16;100499.03;4995508;28;96744;-78
2021/08/17 02:00:01;;;;;;;;;;;;;;;18.54;51.61;100484.22;4977071;28;99342;-79
2021/08/17 02:02:27;;;;;;;;;;;;;;;18.84;51.09;100483.00;4992387;28;99281;-77
2021/08/17 02:04:54;;;;;;;;;;;;;;;18.79;50.91;100482.47;4993743;28;98694;-78
2021/08/17 02:07:20;;;;;;;;;;;;;;;18.67;51.00;100470.84;4996048;28;96929;-78
2021/08/17 02:09:46;;;;;;;;;;;;;;;18.50;51.66;100471.19;4981187;28;101071;-77
2021/08/17 02:12:13;;;;;;;;;;;;;;;18.59;51.30;100471.41;4987907;28;99278;-78
2021/08/17 02:14:39;;;;;;;;;;;;;;;18.80;50.94;100489.53;5004527;28;97259;-78
2021/08/17 02:17:07;;;;;;;;;;;;;;;18.48;51.81;100478.47;5003488;28;97993;-78
2021/08/17 02:19:36;;;;;;;;;;;;;;;18.49;52.06;100472.16;4979777;28;99225;-78
2021/08/17 02:22:02;;;;;;;;;;;;;;;18.54;51.41;100478.03;4985841;28;99177;-78
2021/08/17 02:24:28;;;;;;;;;;;;;;;18.79;51.24;100477.09;4990836;28;97381;-77
2021/08/17 02:26:55;;;;;;;;;;;;;;;18.89;50.83;100479.00;4994621;28;96862;-78
2021/08/17 02:29:22;;;;;;;;;;;;;;;18.87;50.95;100480.09;4981484;28;99285;-78
2021/08/17 02:31:49;;;;;;;;;;;;;;;18.92;50.51;100478.78;4987066;28;98892;-78
2021/08/17 02:34:16;;;;;;;;;;;;;;;18.18;52.24;100477.00;4989464;28;97020;-78
2021/08/17 02:36:42;;;;;;;;;;;;;;;18.69;51.07;100467.09;4995383;28;96814;-78
2021/08/17 02:39:09;;;;;;;;;;;;;;;18.53;51.57;100461.13;4984642;28;99029;-79
2021/08/17 02:41:35;;;;;;;;;;;;;;;18.65;51.07;100456.72;4994111;28;99164;-78
2021/08/17 02:44:01;;;;;;;;;;;;;;;18.57;51.33;100461.78;4993736;28;96817;-78
2021/08/17 02:46:28;;;;;;;;;;;;;;;18.65;51.13;100452.22;4995511;28;96894;-78
2021/08/17 02:48:54;;;;;;;;;;;;;;;18.54;52.00;100453.94;4990054;28;100697;-79
2021/08/17 02:51:22;;;;;;;;;;;;;;;18.63;51.41;100464.03;4998519;28;98775;-78
2021/08/17 02:53:48;;;;;;;;;;;;;;;18.40;51.99;100459.44;4997629;28;96829;-79
2021/08/17 02:56:14;;;;;;;;;;;;;;;18.46;51.77;100470.56;5008109;28;96668;-78
2021/08/17 02:58:40;;;;;;;;;;;;;;;18.81;51.29;100472.50;5007038;28;98927;-78
2021/08/17 03:01:07;;;;;;;;;;;;;;;18.67;51.42;100468.16;4999676;28;98964;-78
2021/08/17 03:03:33;;;;;;;;;;;;;;;19.12;50.43;100469.25;4981392;28;97215;-79
2021/08/17 03:05:59;;;;;;;;;;;;;;;18.69;51.36;100471.59;4995139;28;96982;-79
2021/08/17 03:08:27;;;;;;;;;;;;;;;18.21;52.57;100455.41;4993181;28;101663;-78
2021/08/17 03:10:53;;;;;;;;;;;;;;;18.82;51.30;100467.06;4994949;28;98930;-78
2021/08/17 03:13:19;;;;;;;;;;;;;;;18.99;50.87;100468.47;4989789;28;98001;-78
2021/08/17 03:15:46;;;;;;;;;;;;;;;18.22;52.46;100467.84;4977095;28;96870;-79
2021/08/17 03:18:12;;;;;;;;;;;;;;;18.80;51.24;100468.97;4987132;28;98824;-78
2021/08/17 03:20:39;;;;;;;;;;;;;;;18.88;51.42;100488.00;4976677;28;101590;-78
2021/08/17 03:23:06;;;;;;;;;;;;;;;18.44;52.39;100477.00;4988297;28;96805;-78
2021/08/17 03:25:33;;;;;;;;;;;;;;;18.29;53.26;100478.94;4994491;28;97294;-78
2021/08/17 03:27:59;;;;;;;;;;;;;;;18.66;52.48;100466.44;4993337;28;98943;-78
2021/08/17 03:30:26;;;;;;;;;;;;;;;18.82;51.89;100471.53;4993901;28;99123;-78
2021/08/17 03:32:53;;;;;;;;;;;;;;;18.90;51.42;100472.69;4991962;28;97150;-77
2021/08/17 03:35:19;;;;;;;;;;;;;;;18.82;51.55;100485.78;4988610;28;96915;-79
2021/08/17 03:37:46;;;;;;;;;;;;;;;19.07;51.32;100476.78;4993323;28;99360;-78
2021/08/17 03:40:13;;;;;;;;;;;;;;;18.77;51.42;100485.28;4992333;28;99129;-79
2021/08/17 03:42:41;;;;;;;;;;;;;;;18.39;52.99;100477.31;4993662;28;96838;-79
2021/08/17 03:45:08;;;;;;;;;;;;;;;18.34;53.33;100479.47;4988436;28;97431;-79
2021/08/17 03:47:35;;;;;;;;;;;;;;;18.26;53.26;100484.50;4993094;28;98990;-78
2021/08/17 03:50:01;;;;;;;;;;;;;;;18.46;52.78;100478.56;4993020;28;99176;-78
2021/08/17 03:52:27;;;;;;;;;;;;;;;18.63;52.44;100477.41;4992832;28;97139;-78
2021/08/17 03:54:54;;;;;;;;;;;;;;;18.54;52.83;100472.69;4990763;28;97077;-78
2021/08/17 03:57:20;;;;;;;;;;;;;;;18.70;52.09;100484.88;4993095;28;99036;-79
2021/08/17 03:59:47;;;;;;;;;;;;;;;18.69;52.35;100483.16;4976819;28;98794;-79
2021/08/17 04:02:14;;;;;;;;;;;;;;;18.90;51.53;100475.38;4989360;28;96996;-78
2021/08/17 04:04:40;;;;;;;;;;;;;;;18.85;51.85;100490.03;4986364;28;96905;-78
2021/08/17 04:07:06;;;;;;;;;;;;;;;19.06;51.68;100489.31;4993304;28;99328;-79
2021/08/17 04:09:33;;;;;;;;;;;;;;;19.18;51.03;100490.22;4992680;28;99292;-77
2021/08/17 04:11:59;;;;;;;;;;;;;;;18.98;51.88;100493.53;4992177;28;96871;-79
2021/08/17 04:14:25;;;;;;;;;;;;;;;18.99;51.72;100495.22;4979189;28;96877;-78
2021/08/17 04:16:56;;;;;;;;;;;;;;;18.90;52.01;100503.97;4992185;28;98974;-78
2021/08/17 04:19:22;;;;;;;;;;;;;;;18.77;52.22;100493.31;4978625;28;99255;-78
2021/08/17 04:21:48;;;;;;;;;;;;;;;18.87;52.49;100498.81;4985395;28;98525;-78
2021/08/17 04:24:14;;;;;;;;;;;;;;;18.67;52.81;100506.50;4987445;28;97012;-78
2021/08/17 04:26:41;;;;;;;;;;;;;;;18.54;53.44;100496.75;4993657;28;98210;-79
2021/08/17 04:29:07;;;;;;;;;;;;;;;18.93;52.84;100509.06;4992159;28;98856;-78
2021/08/17 04:31:33;;;;;;;;;;;;;;;18.92;52.27;100502.88;4992122;28;97207;-78
2021/08/17 04:34:01;;;;;;;;;;;;;;;19.04;52.55;100511.81;4989343;28;97296;-79
2021/08/17 04:36:27;;;;;;;;;;;;;;;19.24;51.67;100505.81;4992956;28;99229;-78
2021/08/17 04:38:53;;;;;;;;;;;;;;;19.09;52.15;100507.84;4992565;28;98912;-78
2021/08/17 04:41:20;;;;;;;;;;;;;;;19.02;52.31;100521.78;4993045;28;96816;-78
2021/08/17 04:43:47;;;;;;;;;;;;;;;18.46;54.17;100516.03;4993558;28;97299;-78
2021/08/17 04:46:13;;;;;;;;;;;;;;;18.94;53.10;100517.00;4993204;28;97999;-79
2021/08/17 04:48:39;;;;;;;;;;;;;;;18.83;53.45;100510.72;4985664;28;98858;-79
2021/08/17 04:51:09;;;;;;;;;;;;;;;19.41;52.12;100512.59;4980427;28;96797;-78
2021/08/17 04:53:35;;;;;;;;;;;;;;;19.25;52.29;100520.06;4988845;28;97592;-77
2021/08/17 04:56:01;;;;;;;;;;;;;;;19.27;52.00;100521.69;4989148;28;100585;-79
2021/08/17 04:58:28;;;;;;;;;;;;;;;19.49;51.84;100521.78;4994026;28;98817;-76
2021/08/17 05:00:54;;;;;;;;;;;;;;;19.21;52.59;100529.31;4994620;28;96801;-80
2021/08/17 05:03:23;;;;;;;;;;;;;;;19.32;52.29;100535.56;4989364;28;96957;-77
2021/08/17 05:05:49;;;;;;;;;;;;;;;19.27;52.04;100529.72;4994260;28;97756;-78
2021/08/17 05:08:16;;;;;;;;;;;;;;;19.43;51.74;100537.44;4988284;28;98234;-76
2021/08/17 05:10:43;;;;;;;;;;;;;;;19.17;53.09;100542.06;4990369;28;97070;-79
2021/08/17 05:13:09;;;;;;;;;;;;;;;18.96;53.23;100535.63;4988185;28;97157;-79
2021/08/17 05:15:36;;;;;;;;;;;;;;;19.35;52.37;100543.41;4992329;28;101053;-78
2021/08/17 05:18:03;;;;;;;;;;;;;;;19.71;51.76;100546.94;4996449;28;99629;-78
2021/08/17 05:20:29;;;;;;;;;;;;;;;19.45;52.62;100549.75;4997263;28;96831;-78
2021/08/17 05:22:55;;;;;;;;;;;;;;;19.59;51.82;100553.25;5017554;28;96314;-78
2021/08/17 05:25:23;;;;;;;;;;;;;;;19.68;51.91;100564.13;5017056;28;97947;-77
2021/08/17 05:27:50;;;;;;;;;;;;;;;19.03;54.08;100567.19;5015666;28;98196;-79
2021/08/17 05:30:17;;;;;;;;;;;;;;;19.31;53.01;100568.69;4996913;28;96877;-78
2021/08/17 05:32:44;;;;;;;;;;;;;;;19.43;52.63;100564.22;4997695;28;96871;-81
2021/08/17 05:35:10;;;;;;;;;;;;;;;19.79;51.94;100566.00;4993178;28;98925;-79
2021/08/17 05:37:47;;;;;;;;;;;;;;;;;;;;;
2021/08/17 05:40:14;;;;;;;;;;;;;;;19.99;51.53;100559.94;4989671;28;115403;-80
2021/08/17 05:42:42;;;;;;;;;;;;;;;19.86;51.90;100570.78;4995553;28;96838;-79
2021/08/17 05:45:09;;;;;;;;;;;;;;;19.78;52.42;100575.00;4978164;28;98923;-77
2021/08/17 05:50:21;;;;;;;;;;;;;;;19.62;53.43;100596.78;4991841;28;96821;-78
2021/08/17 05:52:48;;;;;;;;;;;;;;;19.56;53.69;100594.53;4993056;28;98633;-78
2021/08/17 05:55:14;;;;;;;;;;;;;;;19.32;54.35;100597.19;4989216;28;98540;-79
2021/08/17 05:57:43;;;;;;;;;;;;;;;18.58;57.13;100599.94;4990140;28;98135;-79
2021/08/17 06:00:12;;;;;;;;;;;;;;;18.59;57.64;100599.84;4988708;28;97616;-78
2021/08/17 06:02:39;;;;;;;;;;;;;;;19.37;55.15;100603.06;4988910;28;97247;-79
2021/08/17 06:05:06;;;;;;;;;;;;;;;19.81;53.87;100612.31;4989175;28;100486;-80
2021/08/17 06:07:33;;;;;;;;;;;;;;;19.17;55.01;100611.69;4991769;28;99034;-78
2021/08/17 06:09:59;;;;;;;;;;;;;;;19.56;54.79;100623.19;4994463;28;97241;-80
2021/08/17 06:12:25;;;;;;;;;;;;;;;18.79;56.51;100621.66;4989842;28;98369;-80
2021/08/17 06:14:55;;;;;;;;;;;;;;;19.55;55.01;100619.66;4992791;28;99233;-78
2021/08/17 06:17:22;;;;;;;;;;;;;;;19.52;54.92;100608.28;4984395;28;99960;-78
2021/08/17 06:19:48;;;;;;;;;;;;;;;19.78;54.12;100620.56;4997325;28;97352;-78
2021/08/17 06:22:14;;;;;;;;;;;;;;;19.45;54.77;100630.16;5006226;28;96976;-78
2021/08/17 06:24:41;;;;;;;;;;;;;;;19.35;54.46;100622.91;4989097;28;98721;-79
2021/08/17 06:27:07;;;;;;;;;;;;;;;20.07;52.52;100627.28;4991680;28;99299;-78
2021/08/17 06:29:33;;;;;;;;;;;;;;;20.25;51.98;100636.59;4994893;28;97432;-78
2021/08/17 06:32:01;;;;;;;;;;;;;;;20.28;51.97;100635.50;4993008;28;97001;-78
2021/08/17 06:34:27;;;;;;;;;;;;;;;19.17;54.45;100637.63;4989451;28;101398;-77
2021/08/17 06:36:55;;;;;;;;;;;;;;;19.36;54.37;100632.66;4993846;28;98926;-79
2021/08/17 06:39:21;;;;;;;;;;;;;;;19.47;54.55;100641.66;4995446;28;97912;-79
2021/08/17 06:41:48;;;;;;;;;;;;;;;19.67;54.33;100636.63;4990881;28;98703;-78
2021/08/17 06:44:15;;;;;;;;;;;;;;;19.95;53.48;100640.78;4990578;28;98162;-78
2021/08/17 06:46:42;;;;;;;;;;;;;;;19.99;52.95;100642.22;4989439;28;97685;-78
2021/08/17 06:49:10;;;;;;;;;;;;;;;19.91;52.97;100642.81;4991768;28;96893;-77
2021/08/17 06:51:36;;;;;;;;;;;;;;;20.31;52.12;100643.28;4990350;28;96878;-78
2021/08/17 06:54:03;;;;;;;;;;;;;;;20.10;52.39;100651.16;5000722;28;98861;-80
2021/08/17 06:56:29;;;;;;;;;;;;;;;20.16;51.75;100644.47;4992161;28;98789;-80
2021/08/17 06:58:55;;;;;;;;;;;;;;;20.41;51.28;100652.38;4995685;28;97926;-80
2021/08/17 07:01:22;;;;;;;;;;;;;;;20.26;52.12;100654.41;4999861;28;98371;-77
2021/08/17 07:03:48;;;;;;;;;;;;;;;19.93;52.64;100658.78;4996691;28;97655;-79
2021/08/17 07:06:16;;;;;;;;;;;;;;;19.89;52.82;100652.78;4998100;28;99258;-77
2021/08/17 07:08:42;;;;;;;;;;;;;;;20.25;51.86;100658.03;4995708;28;97243;-78
2021/08/17 07:11:09;;;;;;;;;;;;;;;19.87;52.83;100657.44;5005626;28;97022;-77
2021/08/17 07:13:36;;;;;;;;;;;;;;;20.29;51.51;100659.50;5002020;28;102429;-77
2021/08/17 07:16:02;;;;;;;;;;;;;;;19.89;51.92;100653.66;4998260;28;98645;-80
2021/08/17 07:18:28;;;;;;;;;;;;;;;20.43;50.85;100657.63;4983766;28;96927;-78
2021/08/17 07:20:55;;;;;;;;;;;;;;;20.49;50.59;100662.50;4992566;28;98794;-79
2021/08/17 07:23:22;;;;;;;;;;;;;;;20.63;50.10;100662.28;4993462;28;98969;-80
2021/08/17 07:25:49;;;;;;;;;;;;;;;20.67;50.19;100664.63;4994142;28;98834;-79
2021/08/17 07:28:15;;;;;;;;;;;;;;;20.19;50.77;100663.03;4996495;28;96744;-79
2021/08/17 07:30:42;;;;;;;;;;;;;;;20.69;49.75;100685.97;4992607;28;97345;-79
2021/08/17 07:33:08;;;;;;;;;;;;;;;21.35;48.58;100665.47;4993418;28;98962;-77
2021/08/17 07:35:35;;;;;;;;;;;;;;;21.02;48.69;100664.50;4991940;28;100622;-79
2021/08/17 07:38:01;;;;;;;;;;;;;;;21.20;48.51;100674.78;4999238;28;97020;-78
2021/08/17 07:40:29;;;;;;;;;;;;;;;21.54;47.88;100678.25;4999168;28;97012;-78
2021/08/17 07:42:56;;;;;;;;;;;;;;;21.47;47.65;100667.13;4995235;28;99686;-80
2021/08/17 07:45:22;;;;;;;;;;;;;;;21.17;48.40;100672.34;4993127;28;100556;-79
2021/08/17 07:47:49;;;;;;;;;;;;;;;20.47;49.92;100677.91;4994652;28;97478;-79
2021/08/17 07:50:15;;;;;;;;;;;;;;;20.05;51.83;100690.91;5010639;28;96921;-80
2021/08/17 07:52:42;;;;;;;;;;;;;;;20.64;50.77;100693.53;5012098;28;96919;-79
2021/08/17 07:55:09;;;;;;;;;;;;;;;20.28;51.34;100692.66;5008028;28;99298;-79
2021/08/17 07:57:37;;;;;;;;;;;;;;;20.08;52.18;100696.06;4995187;28;96814;-79
2021/08/17 08:00:05;;;;;;;;;;;;;;;20.18;51.48;100697.03;4993137;28;97056;-79
2021/08/17 08:02:31;;;;;;;;;;;;;;;20.79;50.01;100695.03;4989196;28;98989;-78
2021/08/17 08:04:57;;;;;;;;;;;;;;;21.20;49.18;100701.66;4986413;28;98862;-78
2021/08/17 08:07:24;;;;;;;;;;;;;;;20.96;50.08;100688.31;4995964;28;96783;-78
2021/08/17 08:09:50;;;;;;;;;;;;;;;20.49;51.14;100706.31;4996312;28;97296;-79
2021/08/17 08:12:17;;;;;;;;;;;;;;;20.59;51.13;100706.47;4995609;28;99061;-78
2021/08/17 08:14:45;;;;;;;;;;;;;;;20.09;51.76;100708.47;4998932;28;98071;-79
2021/08/17 08:17:11;;;;;;;;;;;;;;;19.71;52.50;100708.66;4982432;28;97015;-79
2021/08/17 08:19:38;;;;;;;;;;;;;;;19.97;52.34;100721.94;4984510;28;97237;-79
2021/08/17 08:22:04;;;;;;;;;;;;;;;19.85;52.56;100723.72;4992976;28;98936;-79
2021/08/17 08:24:30;;;;;;;;;;;;;;;19.14;54.28;100724.44;4992755;28;97504;-78
2021/08/17 08:26:57;;;;;;;;;;;;;;;19.48;53.62;100729.13;4997972;28;96830;-77
2021/08/17 08:29:23;;;;;;;;;;;;;;;20.18;51.85;100734.59;4995571;28;96896;-79
2021/08/17 08:31:51;;;;;;;;;;;;;;;20.25;51.53;100743.91;4993021;28;98238;-78
2021/08/17 08:34:17;;;;;;;;;;;;;;;20.11;51.94;100738.72;4995931;28;98746;-78
2021/08/17 08:36:44;;;;;;;;;;;;;;;19.81;52.19;100735.66;4992200;28;96789;-78
2021/08/17 08:39:10;;;;;;;;;;;;;;;20.47;50.88;100751.22;4991379;28;97234;-77
2021/08/17 08:41:38;;;;;;;;;;;;;;;20.51;50.47;100746.47;4995658;28;99325;-78
2021/08/17 08:44:04;;;;;;;;;;;;;;;20.04;51.98;100753.56;4995360;28;99158;-79
2021/08/17 08:46:31;;;;;;;;;;;;;;;20.17;51.46;100738.25;5000683;28;96979;-78
2021/08/17 08:48:59;;;;;;;;;;;;;;;20.67;50.41;100753.22;4998477;28;98850;-78
2021/08/17 08:51:26;;;;;;;;;;;;;;;20.13;51.76;100746.66;5005259;28;100423;-77
2021/08/17 08:53:52;;;;;;;;;;;;;;;20.18;51.82;100755.22;4995863;28;98783;-78
2021/08/17 08:56:19;;;;;;;;;;;;;;;20.14;51.75;100762.66;4987579;28;97276;-79
2021/08/17 08:58:45;;;;;;;;;;;;;;;20.26;51.27;100768.91;4993892;28;97872;-78
2021/08/17 09:01:12;;;;;;;;;;;;;;;20.09;51.81;100762.09;4993793;28;99130;-79
2021/08/17 09:03:42;;;;;;;;;;;;;;;20.25;51.17;100767.19;4990495;28;98824;-80
2021/08/17 09:06:17;;;;;;;;;;;;;;;20.69;50.17;100762.00;4989027;28;98127;-80
2021/08/17 09:08:43;;;;;;;;;;;;;;;21.10;49.07;100771.34;4996102;28;96858;-78
2021/08/17 09:11:17;;;;;;;;;;;;;;;21.74;47.42;100752.75;4990571;28;98281;-77
2021/08/17 09:13:43;;;;;;;;;;;;;;;21.30;48.59;100765.28;4990783;28;103165;-77
2021/08/17 09:16:22;;;;;;;;;;;;;;;21.32;48.26;100767.84;4989248;28;97251;-78
2021/08/17 09:18:50;;;;;;;;;;;;;;;21.64;47.44;100759.88;4990238;28;96956;-78
2021/08/17 09:21:17;;;;;;;;;;;;;;;20.76;49.66;100767.75;4990056;28;98829;-78
2021/08/17 09:23:44;;;;;;;;;;;;;;;19.85;51.96;100753.22;4990811;28;100208;-78
2021/08/17 09:26:21;;;;;;;;;;;;;;;20.50;50.35;100766.22;4994208;28;98708;-78
2021/08/17 09:28:53;;;;;;;;;;;;;;;20.54;50.10;100775.75;5001078;28;97053;-79
2021/08/17 09:31:31;;;;;;;;;;;;;;;20.94;49.07;100777.06;4991887;28;98594;-77
2021/08/17 09:33:57;;;;;;;;;;;;;;;20.59;49.47;100757.47;4990971;28;99236;-78
2021/08/17 09:36:25;;;;;;;;;;;;;;;21.12;48.04;100765.84;4995464;28;97955;-78
2021/08/17 09:38:51;;;;;;;;;;;;;;;21.51;47.29;100764.53;4997695;28;96795;-78
2021/08/17 09:41:19;;;;;;;;;;;;;;;20.97;48.48;100768.78;4990458;28;99143;-79
2021/08/17 09:43:54;;;;;;;;;;;;;;;21.13;47.82;100759.50;4992856;28;98792;-78
2021/08/17 09:46:25;;;;;;;;;;;;;;;20.93;48.42;100775.38;4995163;28;96892;-77
2021/08/17 09:48:51;;;;;;;;;;;;;;;20.69;48.60;100772.75;4989482;28;97803;-76
2021/08/17 09:51:32;;;;;;;;;;;;;;;20.35;49.81;100768.22;4991102;28;99436;-78
2021/08/17 09:54:10;;;;;;;;;;;;;;;20.07;50.90;100774.81;4997726;28;99738;-78
2021/08/17 09:56:36;;;;;;;;;;;;;;;21.08;48.60;100775.97;5001215;28;96896;-80
2021/08/17 09:59:05;;;;;;;;;;;;;;;20.91;48.75;100777.31;5001489;28;96984;-79
2021/08/17 10:01:31;;;;;;;;;;;;;;;20.93;48.51;100770.00;4999789;28;98557;-78
2021/08/17 10:03:58;;;;;;;;;;;;;;;21.07;48.38;100772.44;4996501;28;97669;-79
2021/08/17 10:06:25;;;;;;;;;;;;;;;21.35;47.26;100776.50;4996921;28;96824;-80
2021/08/17 10:08:53;;;;;;;;;;;;;;;21.30;46.97;100769.78;4996439;28;98088;-79
2021/08/17 10:11:20;;;;;;;;;;;;;;;21.31;47.37;100764.31;4993377;28;101196;-79
2021/08/17 10:13:46;;;;;;;;;;;;;;;21.77;45.70;100771.34;4993077;28;98950;-80
2021/08/17 10:16:16;;;;;;;;;;;;;;;21.51;45.96;100765.41;5004566;28;96935;-78
2021/08/17 10:18:46;;;;;;;;;;;;;;;21.86;44.91;100766.03;5009397;28;96911;-80
2021/08/17 10:21:15;;;;;;;;;;;;;;;22.14;44.73;100774.56;5012911;28;98526;-79
2021/08/17 10:23:44;;;;;;;;;;;;;;;22.31;43.73;100775.88;5003913;28;96827;-77
2021/08/17 10:26:25;;;;;;;;;;;;;;;21.72;44.84;100769.03;4999848;28;97159;-78
2021/08/17 10:28:52;;;;;;;;;;;;;;;21.76;44.67;100765.09;4998321;28;96951;-79
2021/08/17 10:31:26;;;;;;;;;;;;;;;21.65;44.00;100767.84;4995255;28;100635;-79
2021/08/17 10:33:53;;;;;;;;;;;;;;;21.88;43.64;100763.25;4994680;28;99057;-79
2021/08/17 10:36:30;;;;;;;;;;;;;;;22.44;42.74;100768.47;4993401;28;96912;-80
2021/08/17 10:38:58;;;;;;;;;;;;;;;22.51;42.14;100764.28;5003011;28;97236;-79
2021/08/17 10:41:28;;;;;;;;;;;;;;;23.02;40.92;100757.13;5010449;28;98367;-79
2021/08/17 10:44:12;;;;;;;;;;;;;;;23.26;40.22;100774.81;5016023;28;98002;-79
2021/08/17 10:46:47;;;;;;;;;;;;;;;22.23;42.51;100771.13;5013485;28;96692;-79
2021/08/17 10:49:38;;;;;;;;;;;;;;;22.26;42.93;100777.09;5014251;28;96835;-78
2021/08/17 10:52:06;;;;;;;;;;;;;;;21.41;45.08;100788.59;5008335;28;101090;-79
2021/08/17 10:54:33;;;;;;;;;;;;;;;20.97;46.05;100789.41;5014034;28;100322;-77
2021/08/17 10:57:24;;;;;;;;;;;;;;;21.16;45.67;100805.81;5016566;28;98081;-79
2021/08/17 10:59:51;;;;;;;;;;;;;;;20.89;46.18;100800.72;4995283;28;97387;-80
2021/08/17 11:02:21;;;;;;;;;;;;;;;21.58;45.28;100811.47;5016155;28;100536;-78
2021/08/17 11:04:48;;;;;;;;;;;;;;;21.85;43.87;100788.56;5015251;28;100383;-77
2021/08/17 11:07:28;;;;;;;;;;;;;;;22.43;42.01;100807.13;5017543;28;96695;-79
2021/08/17 11:10:33;;;;;;;;;;;;;;;21.86;43.62;100789.41;5058637;27;96546;-79
2021/08/17 11:13:08;;;;;;;;;;;;;;;21.73;43.37;100808.38;5019130;27;96640;-79
2021/08/17 11:15:35;;;;;;;;;;;;;;;20.36;46.86;100803.97;5012572;28;97843;-80
2021/08/17 11:18:02;;;;;;;;;;;;;;;19.87;50.50;100827.22;5009441;28;98817;-80
2021/08/17 11:20:29;;;;;;;;;;;;;;;20.04;52.20;100836.72;5008383;28;97161;-79
2021/08/17 11:22:55;;;;;;;;;;;;;;;20.04;52.75;100834.03;5011680;28;96930;-78
2021/08/17 11:25:23;;;;;;;;;;;;;;;20.20;52.27;100834.63;5001049;28;98854;-78
2021/08/17 11:27:49;;;;;;;;;;;;;;;20.74;51.58;100827.94;5002021;28;98826;-79
2021/08/17 11:30:17;;;;;;;;;;;;;;;20.26;52.12;100833.31;4999916;28;98711;-78
2021/08/17 11:32:48;;;;;;;;;;;;;;;20.27;52.24;100841.25;5004793;28;97067;-77
2021/08/17 11:35:16;;;;;;;;;;;;;;;20.71;52.04;100836.22;5001475;28;98604;-77
2021/08/17 11:37:45;;;;;;;;;;;;;;;20.61;51.42;100841.44;5009679;28;98683;-79
2021/08/17 11:40:12;;;;;;;;;;;;;;;20.66;51.01;100839.25;5012357;28;96968;-78
2021/08/17 11:42:43;;;;;;;;;;;;;;;20.56;51.44;100828.34;5008258;28;98312;-78
2021/08/17 11:45:11;;;;;;;;;;;;;;;21.11;50.01;100836.69;5018402;28;98343;-77
2021/08/17 11:47:43;;;;;;;;;;;;;;;20.68;50.89;100829.22;4999115;28;98369;-79
2021/08/17 11:50:13;;;;;;;;;;;;;;;21.15;49.95;100838.16;5001505;28;98799;-78
2021/08/17 11:52:40;;;;;;;;;;;;;;;21.45;49.36;100838.47;4999544;28;98487;-79
2021/08/17 11:55:07;;;;;;;;;;;;;;;21.44;49.39;100828.69;5004660;28;99220;-79
2021/08/17 11:57:34;;;;;;;;;;;;;;;22.01;47.23;100830.38;5004586;28;99030;-77
2021/08/17 12:00:05;;;;;;;;;;;;;;;22.84;44.69;100817.13;5003007;28;98918;-78
2021/08/17 12:02:31;;;;;;;;;;;;;;;22.75;45.09;100831.38;5002233;28;98926;-77
2021/08/17 12:05:02;;;;;;;;;;;;;;;22.59;45.32;100821.00;5000915;28;99774;-79
2021/08/17 12:07:29;;;;;;;;;;;;;;;23.10;43.46;100823.84;5001711;28;99271;-78
2021/08/17 12:09:56;;;;;;;;;;;;;;;22.89;43.21;100823.84;5001313;28;96923;-78
2021/08/17 12:12:40;;;;;;;;;;;;;;;23.11;42.65;100814.75;5000693;28;97032;-78
2021/08/17 12:15:13;;;;;;;;;;;;;;;23.15;42.58;100818.03;4993044;28;97842;-77
2021/08/17 12:17:43;;;;;;;;;;;;;;;23.09;42.65;100826.66;4997661;28;98450;-78
2021/08/17 12:20:12;;;;;;;;;;;;;;;22.85;43.49;100819.69;5007280;28;96947;-79
2021/08/17 12:22:39;;;;;;;;;;;;;;;22.82;43.75;100824.50;4992754;28;98891;-78
2021/08/17 12:25:06;;;;;;;;;;;;;;;23.18;42.96;100817.75;4988903;28;98973;-77
2021/08/17 12:27:32;;;;;;;;;;;;;;;23.32;42.78;100817.41;4990186;28;98785;-77
2021/08/17 12:29:58;;;;;;;;;;;;;;;23.82;42.18;100818.38;4987077;28;97890;-78
2021/08/17 12:32:29;;;;;;;;;;;;;;;23.88;42.13;100820.53;4985425;28;97851;-80
2021/08/17 12:35:03;;;;;;;;;;;;;;;23.92;41.97;100823.78;4990039;28;99124;-78
2021/08/17 12:37:39;;;;;;;;;;;;;;;23.82;41.41;100826.47;4998262;28;99283;-80
2021/08/17 12:40:08;;;;;;;;;;;;;;;23.50;42.06;100833.88;4992766;28;97299;-81
2021/08/17 12:42:42;;;;;;;;;;;;;;;23.45;42.07;100820.75;4990182;28;97383;-81